Webcam

2021/03/04 23:50 EBBR 042350Z 36007KT 9999 BKN031 03/00 Q1023 NOSIG

Webcam

--- Refresh now ---